Time;durP1;ratioP1;P1;durP2;ratioP2;P2;SDS_P1;SDS_P2;PMS_P1;PMS_P2;Temp;Humidity;BMP_temperature;BMP_pressure;BME280_temperature;BME280_humidity;BME280_pressure;Samples;Min_cycle;Max_cycle;Signal;HPM_P1;HPM_P2
2021/01/09 00:00:07;;;;;;;3.80;3.60;;;-5.30;93.20;;;;;;5033043;28;20622;-69
2021/01/09 00:02:33;;;;;;;2.83;2.67;;;-5.10;93.10;;;;;;5032928;28;20190;-69
2021/01/09 00:04:59;;;;;;;2.80;2.10;;;-5.00;92.90;;;;;;5033084;28;20175;-69
2021/01/09 00:07:24;;;;;;;1.77;1.67;;;-5.00;92.50;;;;;;5033006;28;20167;-69
2021/01/09 00:09:50;;;;;;;1.67;1.57;;;-5.00;92.20;;;;;;5033000;28;20191;-68
2021/01/09 00:12:15;;;;;;;2.03;1.90;;;-5.00;91.90;;;;;;5032942;28;20167;-69
2021/01/09 00:14:41;;;;;;;3.00;2.73;;;-5.00;91.80;;;;;;5032755;28;20615;-68
2021/01/09 00:17:07;;;;;;;3.70;2.60;;;-5.10;91.60;;;;;;5032755;28;20229;-69
2021/01/09 00:19:34;;;;;;;1.50;1.40;;;-5.10;91.50;;;;;;5032918;28;20269;-68
2021/01/09 00:22:00;;;;;;;4.18;1.80;;;-5.10;91.60;;;;;;5032772;28;20601;-68
2021/01/09 00:24:26;;;;;;;4.53;3.97;;;-5.10;91.80;;;;;;5032982;28;20167;-70
2021/01/09 00:26:51;;;;;;;1.70;1.60;;;-5.20;92.30;;;;;;5032608;28;20409;-68
2021/01/09 00:29:17;;;;;;;1.60;1.50;;;-5.30;93.30;;;;;;5032689;28;20422;-70
2021/01/09 00:31:43;;;;;;;1.48;1.38;;;-5.20;93.40;;;;;;5032763;28;20250;-69
2021/01/09 00:34:09;;;;;;;1.67;1.57;;;-5.00;93.00;;;;;;5033801;28;20298;-70
2021/01/09 00:36:35;;;;;;;2.90;1.87;;;-5.00;92.40;;;;;;5036367;28;20163;-70
2021/01/09 00:39:02;;;;;;;1.30;1.30;;;-5.10;91.80;;;;;;5036601;28;20163;-69
2021/01/09 00:41:29;;;;;;;1.80;1.70;;;-5.10;91.70;;;;;;5036151;28;20695;-70
2021/01/09 00:43:56;;;;;;;9.02;1.70;;;-5.20;91.70;;;;;;5036206;28;20217;-70
2021/01/09 00:46:22;;;;;;;1.48;1.38;;;-5.20;92.00;;;;;;5035923;28;20199;-70
2021/01/09 00:48:48;;;;;;;3.15;2.22;;;-5.20;92.10;;;;;;5036167;28;20182;-68
2021/01/09 00:51:14;;;;;;;2.25;1.02;;;-5.20;92.10;;;;;;5035913;28;20556;-68
2021/01/09 00:53:40;;;;;;;2.10;1.73;;;-5.30;92.60;;;;;;5036181;28;20206;-69
2021/01/09 00:56:06;;;;;;;4.90;1.67;;;-5.20;92.90;;;;;;5035736;28;20167;-68
2021/01/09 00:58:35;;;;;;;1.25;1.15;;;-5.20;92.80;;;;;;5035758;28;20794;-70
2021/01/09 01:01:02;;;;;;;4.53;2.38;;;-5.30;93.10;;;;;;5034362;28;20211;-69
2021/01/09 01:03:28;;;;;;;1.95;1.83;;;-5.40;93.30;;;;;;5035854;28;20206;-68
2021/01/09 01:05:54;;;;;;;4.33;1.27;;;-5.20;93.50;;;;;;5034265;28;20645;-70
2021/01/09 01:08:20;;;;;;;1.47;1.37;;;-5.20;92.80;;;;;;5035984;28;20453;-67
2021/01/09 01:10:47;;;;;;;1.10;1.10;;;-5.20;92.60;;;;;;5035528;28;20524;-70
2021/01/09 01:13:13;;;;;;;1.98;1.88;;;-5.20;92.30;;;;;;5035540;28;20202;-69
2021/01/09 01:15:39;;;;;;;1.65;1.55;;;-5.20;92.20;;;;;;5035363;28;20229;-67
2021/01/09 01:18:05;;;;;;;3.03;2.70;;;-5.20;92.10;;;;;;5035612;28;20171;-68
2021/01/09 01:20:31;;;;;;;2.20;2.10;;;-5.10;92.30;;;;;;5035563;28;20190;-70
2021/01/09 01:22:56;;;;;;;6.93;1.20;;;-5.40;93.20;;;;;;5035392;28;20201;-69
2021/01/09 01:25:22;;;;;;;3.00;2.10;;;-5.40;93.90;;;;;;5035347;28;20228;-69
2021/01/09 01:27:48;;;;;;;2.97;1.93;;;-5.30;94.30;;;;;;5035367;28;20213;-69
2021/01/09 01:30:14;;;;;;;2.40;1.50;;;-5.10;94.00;;;;;;5035291;28;20273;-69
2021/01/09 01:32:39;;;;;;;1.83;1.73;;;-5.10;93.90;;;;;;5035234;28;20183;-70
2021/01/09 01:35:06;;;;;;;1.07;1.07;;;-5.20;94.40;;;;;;5035260;28;20228;-70
2021/01/09 01:37:31;;;;;;;1.35;1.35;;;-5.10;94.60;;;;;;5033888;28;20171;-70
2021/01/09 01:39:57;;;;;;;2.40;1.23;;;-5.00;94.10;;;;;;5035113;28;20312;-70
2021/01/09 01:42:23;;;;;;;1.20;1.17;;;-4.90;93.60;;;;;;5035072;28;20179;-70
2021/01/09 01:44:49;;;;;;;0.70;0.70;;;-4.90;92.90;;;;;;5035116;28;20190;-69
2021/01/09 01:47:17;;;;;;;1.53;1.53;;;-5.00;92.70;;;;;;5034803;28;20178;-68
2021/01/09 01:49:48;;;;;;;2.92;2.72;;;-5.00;92.50;;;;;;5034918;28;20194;-70
2021/01/09 01:52:14;;;;;;;2.00;1.35;;;-5.00;92.30;;;;;;5034823;28;20250;-67
2021/01/09 01:54:44;;;;;;;1.07;1.00;;;-5.20;92.50;;;;;;5034732;28;20278;-70
2021/01/09 01:57:12;;;;;;;2.80;1.92;;;-5.20;92.40;;;;;;5034537;28;20452;-68
2021/01/09 01:59:41;;;;;;;2.15;1.10;;;-5.20;92.20;;;;;;5034716;28;20194;-68
2021/01/09 02:02:08;;;;;;;1.40;1.25;;;-5.50;92.00;;;;;;5034702;28;20167;-68
2021/01/09 02:04:34;;;;;;;1.60;1.50;;;-5.70;92.70;;;;;;5034642;28;20712;-68
2021/01/09 02:07:14;;;;;;;1.97;1.80;;;-5.60;93.30;;;;;;5034430;28;20183;-69
2021/01/09 02:09:44;;;;;;;3.40;2.30;;;-5.50;93.60;;;;;;5034464;28;20297;-69
2021/01/09 02:12:22;;;;;;;1.08;1.08;;;-5.40;93.70;;;;;;5034477;28;20186;-69
2021/01/09 02:14:50;;;;;;;1.02;1.02;;;-5.40;93.90;;;;;;5034517;28;20293;-68
2021/01/09 02:17:18;;;;;;;1.70;1.60;;;-5.30;94.30;;;;;;5034180;28;20163;-68
2021/01/09 02:19:45;;;;;;;1.02;0.93;;;-5.20;94.50;;;;;;5034720;28;20179;-68
2021/01/09 02:22:15;;;;;;;0.90;0.90;;;-5.10;94.50;;;;;;5034365;28;20175;-67
2021/01/09 02:24:41;;;;;;;1.50;1.40;;;-5.10;94.00;;;;;;5034513;28;20171;-68
2021/01/09 02:27:08;;;;;;;1.45;1.35;;;-5.00;93.90;;;;;;5033998;28;20194;-68
2021/01/09 02:29:43;;;;;;;1.05;1.05;;;-5.10;93.80;;;;;;5034155;28;20194;-69
2021/01/09 02:32:11;;;;;;;3.75;2.65;;;-5.10;93.10;;;;;;5034082;28;20155;-68
2021/01/09 02:34:42;;;;;;;1.27;1.23;;;-5.20;92.80;;;;;;5033925;28;20256;-68
2021/01/09 02:37:09;;;;;;;1.15;0.80;;;-5.20;92.70;;;;;;5033819;28;20182;-69
2021/01/09 02:39:36;;;;;;;2.00;1.73;;;-5.20;92.90;;;;;;5033994;28;20544;-68
2021/01/09 02:42:03;;;;;;;1.48;1.45;;;-5.20;93.10;;;;;;5033924;28;20179;-68
2021/01/09 02:44:28;;;;;;;1.10;1.10;;;-5.30;93.10;;;;;;5034013;28;20544;-69
2021/01/09 02:46:54;;;;;;;1.17;1.10;;;-5.30;93.80;;;;;;5033738;28;20167;-70
2021/01/09 02:49:20;;;;;;;1.37;1.37;;;-5.20;93.70;;;;;;5033821;28;20970;-68
2021/01/09 02:51:45;;;;;;;2.43;2.13;;;-5.20;93.70;;;;;;5033831;28;20261;-68
2021/01/09 02:54:11;;;;;;;1.50;1.47;;;-5.10;94.10;;;;;;5033790;28;20205;-70
2021/01/09 02:56:37;;;;;;;1.67;1.57;;;-5.10;94.20;;;;;;5032989;28;20171;-69
2021/01/09 02:59:02;;;;;;;2.20;1.10;;;-5.10;94.50;;;;;;5033732;28;20432;-70
2021/01/09 03:01:28;;;;;;;2.60;1.43;;;-5.10;94.70;;;;;;5033402;28;20214;-68
2021/01/09 03:03:54;;;;;;;1.40;1.05;;;-5.20;95.00;;;;;;5033684;28;20253;-68
2021/01/09 03:06:20;;;;;;;2.27;2.10;;;-5.10;95.10;;;;;;5033611;28;20596;-69
2021/01/09 03:08:46;;;;;;;0.90;0.90;;;-4.90;94.80;;;;;;5032539;28;20203;-70
2021/01/09 03:11:11;;;;;;;1.07;0.93;;;-4.90;94.30;;;;;;5033450;28;20194;-69
2021/01/09 03:13:37;;;;;;;2.57;2.37;;;-4.90;93.80;;;;;;5033650;28;20485;-68
2021/01/09 03:16:03;;;;;;;2.33;2.13;;;-4.90;93.70;;;;;;5033381;28;20182;-69
2021/01/09 03:18:29;;;;;;;1.08;0.98;;;-5.00;93.30;;;;;;5033567;28;20257;-70
2021/01/09 03:20:54;;;;;;;2.70;1.40;;;-5.00;93.20;;;;;;5033434;28;20270;-69
2021/01/09 03:23:20;;;;;;;1.90;1.13;;;-5.00;93.30;;;;;;5032351;28;20612;-69
2021/01/09 03:25:46;;;;;;;2.67;2.47;;;-5.00;93.70;;;;;;5033345;28;20181;-69
2021/01/09 03:28:11;;;;;;;1.73;1.63;;;-4.80;94.10;;;;;;5032357;28;20200;-69
2021/01/09 03:30:37;;;;;;;1.30;1.20;;;-4.80;94.20;;;;;;5033418;28;20271;-70
2021/01/09 03:33:03;;;;;;;2.30;1.23;;;-4.80;94.10;;;;;;5033320;28;20205;-71
2021/01/09 03:35:28;;;;;;;1.50;1.40;;;-4.70;94.30;;;;;;5033261;28;20261;-70
2021/01/09 03:37:54;;;;;;;3.23;1.60;;;-4.70;94.30;;;;;;5033453;28;20171;-69
2021/01/09 03:40:19;;;;;;;1.33;1.33;;;-4.60;95.00;;;;;;5033239;28;20186;-70
2021/01/09 03:42:45;;;;;;;1.63;1.13;;;-4.50;95.10;;;;;;5033252;28;20233;-69
2021/01/09 03:45:11;;;;;;;6.43;2.23;;;-4.60;95.30;;;;;;5033921;28;20197;-69
2021/01/09 03:47:37;;;;;;;3.23;2.30;;;-4.60;95.30;;;;;;5033094;28;20224;-70
2021/01/09 03:50:06;;;;;;;1.73;1.63;;;-4.60;94.80;;;;;;5033121;28;20425;-69
2021/01/09 03:52:31;;;;;;;1.40;1.30;;;-4.70;94.60;;;;;;5033232;28;20175;-70
2021/01/09 03:54:57;;;;;;;2.10;2.00;;;-4.70;94.80;;;;;;5033571;28;20293;-69
2021/01/09 03:57:23;;;;;;;6.30;1.97;;;-4.60;94.80;;;;;;5033059;28;20164;-70
2021/01/09 03:59:49;;;;;;;1.23;1.23;;;-4.50;95.00;;;;;;5033158;28;20199;-68
2021/01/09 04:02:15;;;;;;;1.90;1.77;;;-4.50;94.60;;;;;;5033277;28;20541;-68
2021/01/09 04:04:41;;;;;;;1.60;1.50;;;-4.40;93.80;;;;;;5033185;28;20531;-69
2021/01/09 04:07:06;;;;;;;3.53;3.23;;;-4.60;93.50;;;;;;5032925;28;20175;-69
2021/01/09 04:09:32;;;;;;;1.70;1.37;;;-4.70;94.40;;;;;;5036191;28;20219;-69
2021/01/09 04:11:58;;;;;;;2.00;1.53;;;-4.70;95.20;;;;;;5036720;28;20171;-68
2021/01/09 04:14:23;;;;;;;1.63;1.53;;;-4.60;95.50;;;;;;5037354;28;20206;-69
2021/01/09 04:16:49;;;;;;;3.70;2.30;;;-4.60;95.80;;;;;;5036816;28;20175;-68
2021/01/09 04:19:15;;;;;;;5.60;1.63;;;-4.50;95.80;;;;;;5036618;28;20182;-68
2021/01/09 04:21:58;;;;;;;4.43;3.20;;;-4.40;95.50;;;;;;5036735;28;20173;-70
2021/01/09 04:24:24;;;;;;;5.82;1.40;;;-4.40;94.90;;;;;;5035475;28;20229;-69
2021/01/09 04:26:58;;;;;;;2.55;1.35;;;-4.50;95.40;;;;;;5036319;28;20262;-68
2021/01/09 04:29:24;;;;;;;2.40;2.10;;;-4.50;96.00;;;;;;5036504;28;20171;-69
2021/01/09 04:31:50;;;;;;;2.72;2.10;;;-4.30;96.20;;;;;;5036412;28;20254;-69
2021/01/09 04:34:17;;;;;;;1.95;1.85;;;-4.20;95.70;;;;;;5036340;28;20205;-70
2021/01/09 04:36:43;;;;;;;1.65;1.55;;;-4.20;95.30;;;;;;5034987;28;20224;-69
2021/01/09 04:39:09;;;;;;;2.50;1.90;;;-4.30;95.40;;;;;;5036431;28;20225;-69
2021/01/09 04:41:36;;;;;;;1.20;1.10;;;-4.20;95.50;;;;;;5036230;28;20234;-70
2021/01/09 04:44:06;;;;;;;0.98;0.88;;;-4.20;95.60;;;;;;5036487;28;20467;-70
2021/01/09 04:46:37;;;;;;;5.82;2.50;;;-4.20;95.70;;;;;;5036158;28;20645;-68
2021/01/09 04:49:03;;;;;;;1.35;1.25;;;-4.40;96.00;;;;;;5036353;28;20186;-70
2021/01/09 04:51:29;;;;;;;2.17;1.97;;;-4.20;95.90;;;;;;5036034;28;20191;-70
2021/01/09 04:53:55;;;;;;;2.75;1.92;;;-4.10;95.20;;;;;;5036010;28;20195;-70
2021/01/09 04:56:21;;;;;;;2.05;1.77;;;-4.10;94.80;;;;;;5035928;28;20171;-69
2021/01/09 04:58:47;;;;;;;4.63;1.67;;;-4.10;95.10;;;;;;5036105;28;20544;-69
2021/01/09 05:01:13;;;;;;;3.73;1.50;;;-4.10;95.40;;;;;;5035922;28;20203;-68
2021/01/09 05:03:39;;;;;;;2.10;2.00;;;-4.20;95.40;;;;;;5035874;28;20232;-69
2021/01/09 05:06:05;;;;;;;1.70;1.60;;;-4.10;95.60;;;;;;5035702;28;20214;-68
2021/01/09 05:08:31;;;;;;;2.05;1.90;;;-4.20;95.00;;;;;;5035922;28;20421;-69
2021/01/09 05:10:57;;;;;;;2.63;1.87;;;-4.20;94.70;;;;;;5035664;28;20198;-67
2021/01/09 05:13:23;;;;;;;1.70;1.60;;;-4.20;94.30;;;;;;5035909;28;20241;-69
2021/01/09 05:15:49;;;;;;;1.57;1.47;;;-4.40;93.90;;;;;;5035457;28;20195;-68
2021/01/09 05:18:16;;;;;;;2.72;1.52;;;-4.50;93.80;;;;;;5035742;28;20414;-68
2021/01/09 05:20:43;;;;;;;4.00;1.95;;;-4.70;94.00;;;;;;5035088;28;20191;-68
2021/01/09 05:23:10;;;;;;;4.30;2.03;;;-4.80;94.90;;;;;;5035466;28;20170;-69
2021/01/09 05:25:36;;;;;;;1.20;1.20;;;-4.80;95.40;;;;;;5035300;28;20167;-68
2021/01/09 05:28:05;;;;;;;2.05;1.95;;;-4.80;96.00;;;;;;5035419;28;20175;-69
2021/01/09 05:30:32;;;;;;;2.88;2.17;;;-4.70;95.70;;;;;;5035248;28;20199;-70
2021/01/09 05:33:00;;;;;;;0.95;0.95;;;-4.80;96.30;;;;;;5035309;28;20178;-69
2021/01/09 05:35:29;;;;;;;1.88;1.40;;;-4.90;97.20;;;;;;5035178;28;20250;-68
2021/01/09 05:37:55;;;;;;;1.80;1.70;;;-4.70;97.10;;;;;;5035193;28;20567;-69
2021/01/09 05:40:21;;;;;;;3.30;2.70;;;-4.50;96.90;;;;;;5033851;28;20242;-70
2021/01/09 05:42:49;;;;;;;2.50;1.80;;;-4.40;96.50;;;;;;5035121;28;20171;-69
2021/01/09 05:45:15;;;;;;;4.82;2.28;;;-4.40;95.80;;;;;;5034940;28;20174;-69
2021/01/09 05:47:41;;;;;;;1.15;1.15;;;-4.40;95.40;;;;;;5035217;28;20540;-69
2021/01/09 05:50:08;;;;;;;1.92;1.63;;;-4.30;95.40;;;;;;5034971;28;20550;-69
2021/01/09 05:52:40;;;;;;;4.50;2.03;;;-4.30;95.20;;;;;;5034857;28;20204;-70
2021/01/09 05:55:08;;;;;;;1.60;1.50;;;-4.30;95.00;;;;;;5034749;28;20198;-68
2021/01/09 05:57:35;;;;;;;3.92;1.35;;;-4.20;95.00;;;;;;5034765;28;20240;-70
2021/01/09 06:00:14;;;;;;;2.17;1.85;;;-4.10;94.60;;;;;;5034753;28;20292;-69
2021/01/09 06:02:59;;;;;;;1.20;1.10;;;-4.20;94.80;;;;;;5034661;28;20182;-68
2021/01/09 06:05:45;;;;;;;2.22;2.05;;;-4.20;95.10;;;;;;5034715;28;20174;-69
2021/01/09 06:08:14;;;;;;;1.73;1.63;;;-4.30;95.80;;;;;;5034906;28;20201;-69
2021/01/09 06:10:44;;;;;;;3.38;2.05;;;-4.20;95.40;;;;;;5034355;28;20199;-68
2021/01/09 06:13:12;;;;;;;2.28;2.08;;;-4.10;94.80;;;;;;5034400;28;20653;-69
2021/01/09 06:15:41;;;;;;;1.88;1.77;;;-4.30;94.00;;;;;;5034367;28;20217;-69
2021/01/09 06:18:09;;;;;;;2.60;2.40;;;-4.40;94.10;;;;;;5034575;28;20676;-68
2021/01/09 06:20:35;;;;;;;4.05;2.42;;;-4.50;94.50;;;;;;5034590;28;20536;-70
2021/01/09 06:23:02;;;;;;;2.72;2.53;;;-4.40;94.60;;;;;;5034414;28;20503;-70
2021/01/09 06:25:30;;;;;;;1.38;1.38;;;-4.70;94.90;;;;;;5034346;28;20579;-68
2021/01/09 06:28:01;;;;;;;1.55;1.55;;;-4.80;95.90;;;;;;5034274;28;20171;-69
2021/01/09 06:30:32;;;;;;;2.42;2.03;;;-4.70;96.10;;;;;;5033824;28;20245;-68
2021/01/09 06:33:02;;;;;;;3.00;2.28;;;-4.60;95.70;;;;;;5034332;28;20170;-69
2021/01/09 06:35:31;;;;;;;2.20;1.90;;;-4.50;94.60;;;;;;5034232;28;20580;-68
2021/01/09 06:37:57;;;;;;;2.60;2.33;;;-4.70;93.90;;;;;;5034296;28;20171;-68
2021/01/09 06:40:23;;;;;;;1.87;1.60;;;-4.80;94.00;;;;;;5033985;28;20726;-69
2021/01/09 06:42:50;;;;;;;1.70;1.60;;;-4.80;94.60;;;;;;5034355;28;20167;-70
2021/01/09 06:45:16;;;;;;;3.15;1.55;;;-4.80;95.00;;;;;;5033839;28;20173;-68
2021/01/09 06:47:55;;;;;;;1.33;1.25;;;-4.70;95.50;;;;;;5034097;28;20190;-68
2021/01/09 06:50:29;;;;;;;1.88;1.77;;;-4.60;95.20;;;;;;5033993;28;20652;-70
2021/01/09 06:52:55;;;;;;;3.90;2.08;;;-4.60;94.60;;;;;;5033833;28;20174;-68
2021/01/09 06:55:36;;;;;;;1.23;1.10;;;-4.70;94.50;;;;;;5033631;28;20249;-69
2021/01/09 06:58:13;;;;;;;1.40;1.30;;;-4.60;94.70;;;;;;5034063;28;20170;-68
2021/01/09 07:00:39;;;;;;;1.42;1.33;;;-4.70;94.70;;;;;;5033695;28;20206;-69
2021/01/09 07:03:11;;;;;;;3.20;2.90;;;-4.60;94.90;;;;;;5033961;28;20174;-69
2021/01/09 07:05:44;;;;;;;5.25;3.15;;;-5.00;94.40;;;;;;5033507;28;20174;-68
2021/01/09 07:08:17;;;;;;;5.03;4.47;;;-4.90;95.10;;;;;;5033727;28;20190;-70
2021/01/09 07:10:58;;;;;;;6.88;4.68;;;-4.80;95.20;;;;;;5033336;28;20237;-68
2021/01/09 07:13:26;;;;;;;3.00;2.70;;;-4.60;95.10;;;;;;5033702;28;20286;-68
2021/01/09 07:16:09;;;;;;;1.70;1.60;;;-4.70;95.40;;;;;;5033396;28;20274;-68
2021/01/09 07:18:52;;;;;;;3.85;1.92;;;-4.70;95.70;;;;;;5033732;28;20167;-69
2021/01/09 07:21:20;;;;;;;4.10;2.90;;;-4.50;96.20;;;;;;5034002;28;20599;-68
2021/01/09 07:23:51;;;;;;;5.47;2.28;;;-4.40;95.70;;;;;;5033567;28;20163;-68
2021/01/09 07:26:18;;;;;;;5.97;2.88;;;-4.30;95.70;;;;;;5033212;28;20253;-69
2021/01/09 07:28:46;;;;;;;2.15;2.00;;;-4.30;95.60;;;;;;5033403;28;20178;-69
2021/01/09 07:31:13;;;;;;;4.07;3.45;;;-4.20;95.80;;;;;;5033212;28;20273;-69
2021/01/09 07:33:42;;;;;;;2.72;2.60;;;-4.30;95.30;;;;;;5033402;28;20194;-69
2021/01/09 07:36:10;;;;;;;3.55;3.35;;;-4.10;95.30;;;;;;5033016;28;20179;-69
2021/01/09 07:38:46;;;;;;;3.42;2.80;;;-4.00;95.50;;;;;;5033247;28;20625;-70
2021/01/09 07:41:34;;;;;;;3.70;2.35;;;-3.80;95.20;;;;;;5032041;28;20759;-70
2021/01/09 07:44:34;;;;;;;6.70;3.65;;;-3.70;94.80;;;;;;5037444;28;20257;-69
2021/01/09 07:47:05;;;;;;;2.45;2.13;;;-3.60;94.60;;;;;;5026324;28;20525;-67
2021/01/09 07:49:37;;;;;;;2.40;1.60;;;-3.60;93.90;;;;;;5037378;28;20685;-70
2021/01/09 07:52:07;;;;;;;3.40;3.10;;;-3.60;94.00;;;;;;5037314;28;20211;-70
2021/01/09 07:54:34;;;;;;;1.95;1.85;;;-3.60;94.30;;;;;;5037134;28;20227;-68
2021/01/09 07:57:00;;;;;;;1.73;1.58;;;-3.60;94.10;;;;;;5036953;28;20163;-68
2021/01/09 07:59:26;;;;;;;3.15;1.83;;;-3.60;94.30;;;;;;5036945;28;20596;-69
2021/01/09 08:01:52;;;;;;;3.23;2.70;;;-3.50;94.60;;;;;;5035775;28;20179;-70
2021/01/09 08:04:17;;;;;;;2.60;2.47;;;-3.40;94.50;;;;;;5037099;28;20244;-70
2021/01/09 08:06:43;;;;;;;4.80;3.23;;;-3.30;93.80;;;;;;5036899;28;20187;-70
2021/01/09 08:09:09;;;;;;;8.00;3.47;;;-3.40;93.40;;;;;;5036905;28;20171;-68
2021/01/09 08:11:46;;;;;;;4.35;2.42;;;-3.40;93.60;;;;;;5036682;28;20275;-69
2021/01/09 08:14:13;;;;;;;5.22;2.88;;;-3.30;93.60;;;;;;5036708;28;20569;-69
2021/01/09 08:16:39;;;;;;;3.83;3.53;;;-3.20;93.80;;;;;;5036750;28;20178;-68
2021/01/09 08:19:13;;;;;;;5.63;2.97;;;-2.80;94.30;;;;;;5037137;28;20167;-68
2021/01/09 08:21:39;;;;;;;3.22;2.92;;;-1.80;94.40;;;;;;5036716;28;20197;-70
2021/01/09 08:24:06;;;;;;;2.78;2.53;;;-0.90;93.80;;;;;;5036640;28;20178;-69
2021/01/09 08:26:32;;;;;;;2.78;2.53;;;0.00;92.20;;;;;;5035189;28;20637;-68
2021/01/09 08:28:58;;;;;;;5.18;3.97;;;0.60;90.60;;;;;;5036783;28;20179;-69
2021/01/09 08:31:27;;;;;;;3.83;2.63;;;1.10;88.50;;;;;;5036636;28;20193;-68
2021/01/09 08:33:53;;;;;;;2.42;2.22;;;1.60;86.70;;;;;;5036485;28;20487;-70
2021/01/09 08:36:22;;;;;;;5.90;3.23;;;2.70;84.00;;;;;;5036379;28;20207;-70
2021/01/09 08:38:49;;;;;;;2.90;2.58;;;3.50;80.30;;;;;;5036555;28;20173;-69
2021/01/09 08:41:15;;;;;;;3.33;2.60;;;3.70;76.20;;;;;;5036514;28;20217;-69
2021/01/09 08:43:40;;;;;;;2.10;1.80;;;4.00;76.00;;;;;;5036373;28;20645;-70
2021/01/09 08:46:11;;;;;;;2.23;1.77;;;4.50;73.00;;;;;;5036120;28;20590;-70
2021/01/09 08:48:37;;;;;;;3.17;2.58;;;4.30;70.90;;;;;;5036394;28;20201;-69
2021/01/09 08:51:13;;;;;;;2.87;1.97;;;4.60;73.10;;;;;;5036121;28;20202;-69
2021/01/09 08:53:54;;;;;;;1.67;1.58;;;5.30;71.50;;;;;;5035397;28;20210;-71
2021/01/09 08:56:22;;;;;;;2.55;2.35;;;6.40;69.50;;;;;;5035911;28;20213;-69
2021/01/09 08:58:48;;;;;;;2.50;2.30;;;7.50;63.20;;;;;;5035993;28;20628;-71
2021/01/09 09:01:17;;;;;;;2.42;2.22;;;9.10;57.00;;;;;;5034546;28;20222;-70
2021/01/09 09:03:49;;;;;;;1.95;1.75;;;9.20;53.90;;;;;;5035844;28;20169;-68
2021/01/09 09:06:17;;;;;;;2.78;2.28;;;10.10;51.50;;;;;;5035700;28;20181;-70
2021/01/09 09:08:43;;;;;;;2.35;2.15;;;11.30;48.50;;;;;;5035937;28;20220;-71
2021/01/09 09:11:09;;;;;;;3.05;2.28;;;12.30;45.00;;;;;;5035786;28;20198;-68
2021/01/09 09:13:36;;;;;;;1.80;1.70;;;13.00;42.80;;;;;;5035857;28;20201;-70
2021/01/09 09:16:21;;;;;;;2.63;2.00;;;13.00;40.50;;;;;;5035621;28;20246;-70
2021/01/09 09:18:48;;;;;;;1.58;1.48;;;13.30;40.10;;;;;;5035686;28;20249;-69
2021/01/09 09:21:17;;;;;;;2.70;2.45;;;12.80;39.80;;;;;;5035517;28;20193;-71
2021/01/09 09:23:53;;;;;;;2.30;2.20;;;13.00;39.30;;;;;;5035578;28;20174;-69
2021/01/09 09:26:19;;;;;;;3.90;3.60;;;13.30;40.20;;;;;;5035393;28;20181;-69
2021/01/09 09:28:48;;;;;;;8.77;7.47;;;13.60;38.30;;;;;;5035655;28;20175;-67
2021/01/09 09:31:32;;;;;;;3.57;3.27;;;14.30;37.20;;;;;;5035477;28;20187;-69
2021/01/09 09:34:16;;;;;;;2.27;2.07;;;14.90;35.80;;;;;;5035492;28;20540;-70
2021/01/09 09:36:48;;;;;;;2.37;2.20;;;15.30;34.90;;;;;;5035122;28;20417;-71
2021/01/09 09:39:19;;;;;;;2.47;2.27;;;14.80;33.90;;;;;;5035236;28;20409;-71
2021/01/09 09:41:57;;;;;;;2.20;2.00;;;14.80;34.50;;;;;;5035244;28;20404;-69
2021/01/09 09:44:33;;;;;;;2.20;2.00;;;14.80;34.70;;;;;;5035414;28;20417;-70
2021/01/09 09:47:00;;;;;;;1.93;1.83;;;14.60;34.30;;;;;;5034948;28;20405;-70
2021/01/09 09:49:25;;;;;;;2.15;2.03;;;14.00;34.30;;;;;;5035238;28;20793;-70
2021/01/09 09:51:51;;;;;;;2.07;1.97;;;13.90;35.50;;;;;;5034952;28;20171;-71
2021/01/09 09:54:31;;;;;;;2.20;2.00;;;13.90;35.30;;;;;;5035257;28;20285;-69
2021/01/09 09:56:57;;;;;;;2.60;2.00;;;13.10;34.40;;;;;;5034923;28;20178;-69
2021/01/09 09:59:30;;;;;;;2.23;2.03;;;11.50;35.80;;;;;;5034801;28;20633;-71
2021/01/09 10:01:58;;;;;;;2.25;1.90;;;10.90;37.50;;;;;;5034808;28;20448;-69
2021/01/09 10:04:24;;;;;;;1.58;1.48;;;10.80;37.60;;;;;;5034879;28;20596;-70
2021/01/09 10:06:51;;;;;;;2.40;2.20;;;11.00;38.30;;;;;;5033511;28;20171;-70
2021/01/09 10:09:18;;;;;;;2.10;1.88;;;10.70;39.30;;;;;;5034819;28;20171;-68
2021/01/09 10:11:45;;;;;;;1.80;1.70;;;10.60;38.50;;;;;;5034749;28;20178;-69
2021/01/09 10:14:11;;;;;;;2.13;2.03;;;10.50;38.70;;;;;;5034768;28;20195;-71
2021/01/09 10:16:37;;;;;;;2.42;2.22;;;10.60;38.70;;;;;;5034371;28;20558;-70
2021/01/09 10:19:03;;;;;;;2.07;1.87;;;11.00;39.50;;;;;;5034539;28;20250;-69
2021/01/09 10:21:30;;;;;;;1.90;1.80;;;11.00;38.10;;;;;;5034399;28;20193;-71
2021/01/09 10:23:57;;;;;;;1.98;1.75;;;10.50;38.70;;;;;;5034491;28;20182;-68
2021/01/09 10:26:33;;;;;;;1.67;1.58;;;10.90;38.60;;;;;;5034245;28;20174;-69
2021/01/09 10:29:01;;;;;;;2.08;1.67;;;11.20;39.30;;;;;;5034418;28;20178;-69
2021/01/09 10:31:33;;;;;;;1.50;1.40;;;11.40;38.90;;;;;;5034075;28;20406;-70
2021/01/09 10:34:00;;;;;;;2.22;2.08;;;11.50;37.50;;;;;;5034254;28;20209;-69
2021/01/09 10:36:31;;;;;;;1.33;1.23;;;10.30;36.70;;;;;;5034276;28;20169;-71
2021/01/09 10:38:57;;;;;;;1.40;1.30;;;10.00;37.50;;;;;;5034394;28;20637;-69
2021/01/09 10:41:23;;;;;;;1.45;1.35;;;10.20;39.10;;;;;;5034032;28;20197;-71
2021/01/09 10:43:49;;;;;;;1.37;1.27;;;10.30;37.30;;;;;;5034201;28;20205;-70
2021/01/09 10:46:23;;;;;;;2.55;1.83;;;10.00;38.10;;;;;;5033806;28;20413;-71
2021/01/09 10:48:49;;;;;;;1.58;1.48;;;10.00;38.40;;;;;;5034001;28;20191;-71
2021/01/09 10:51:16;;;;;;;1.60;1.50;;;10.50;38.80;;;;;;5033833;28;20197;-70
2021/01/09 10:53:42;;;;;;;1.90;1.70;;;10.60;39.20;;;;;;5033907;28;20195;-70
2021/01/09 10:56:08;;;;;;;3.53;2.33;;;10.60;39.70;;;;;;5033738;28;20709;-71
2021/01/09 10:58:33;;;;;;;1.60;1.40;;;10.80;39.30;;;;;;5033777;28;20173;-69
2021/01/09 11:00:59;;;;;;;1.13;1.13;;;10.60;39.30;;;;;;5033642;28;20209;-69
2021/01/09 11:03:25;;;;;;;1.90;1.33;;;9.50;39.90;;;;;;5033702;28;20177;-69
2021/01/09 11:05:51;;;;;;;2.30;1.60;;;8.90;41.30;;;;;;5033205;28;20292;-69
2021/01/09 11:08:16;;;;;;;1.50;1.40;;;8.90;42.60;;;;;;5033887;28;20186;-69
2021/01/09 11:10:42;;;;;;;1.40;1.07;;;8.70;41.60;;;;;;5033815;28;20661;-69
2021/01/09 11:13:07;;;;;;;1.50;1.37;;;7.90;42.10;;;;;;5033714;28;20657;-70
2021/01/09 11:15:33;;;;;;;1.90;1.67;;;7.00;44.30;;;;;;5033389;28;20177;-70
2021/01/09 11:17:59;;;;;;;1.50;1.33;;;5.80;46.40;;;;;;5033292;28;20177;-69
2021/01/09 11:20:24;;;;;;;1.93;1.80;;;5.70;48.30;;;;;;5033557;28;20191;-70
2021/01/09 11:22:50;;;;;;;1.37;1.27;;;5.10;48.90;;;;;;5033576;28;20171;-70
2021/01/09 11:25:15;;;;;;;2.30;1.80;;;4.60;49.10;;;;;;5033235;28;20207;-71
2021/01/09 11:27:41;;;;;;;1.17;1.10;;;4.50;50.20;;;;;;5033785;28;20718;-68
2021/01/09 11:30:07;;;;;;;1.40;1.30;;;4.70;50.50;;;;;;5033507;28;20202;-70
2021/01/09 11:32:33;;;;;;;1.65;1.40;;;4.10;51.60;;;;;;5033442;28;20513;-68
2021/01/09 11:34:58;;;;;;;1.53;1.30;;;4.10;52.10;;;;;;5033337;28;20209;-70
2021/01/09 11:37:24;;;;;;;1.50;1.27;;;4.50;50.70;;;;;;5033348;28;20163;-70
2021/01/09 11:39:53;;;;;;;1.92;1.70;;;4.80;51.70;;;;;;5033332;28;20226;-70
2021/01/09 11:42:20;;;;;;;1.33;1.23;;;4.90;53.10;;;;;;5033257;28;20171;-68
2021/01/09 11:44:46;;;;;;;1.75;1.65;;;4.40;51.60;;;;;;5033298;28;20178;-70
2021/01/09 11:47:11;;;;;;;1.40;1.30;;;3.60;52.90;;;;;;5033058;28;20536;-70
2021/01/09 11:49:37;;;;;;;1.83;1.43;;;3.70;53.30;;;;;;5033288;28;20267;-70
2021/01/09 11:52:03;;;;;;;1.60;1.50;;;3.80;54.50;;;;;;5033317;28;20520;-68
2021/01/09 11:54:28;;;;;;;1.77;1.13;;;3.70;53.50;;;;;;5033311;28;20201;-70
2021/01/09 11:56:59;;;;;;;1.97;1.53;;;3.90;54.90;;;;;;5032983;28;20554;-68
2021/01/09 11:59:25;;;;;;;5.97;1.52;;;3.80;54.10;;;;;;5033499;28;20177;-68
2021/01/09 12:01:51;;;;;;;2.23;1.77;;;3.60;54.40;;;;;;5033231;28;20184;-69
2021/01/09 12:04:16;;;;;;;2.87;2.40;;;3.70;55.00;;;;;;5033126;28;20542;-68
2021/01/09 12:06:42;;;;;;;1.83;1.57;;;3.60;54.10;;;;;;5032891;28;20175;-70
2021/01/09 12:09:08;;;;;;;0.90;0.90;;;3.40;54.30;;;;;;5033056;28;20175;-69
2021/01/09 12:11:34;;;;;;;1.67;1.50;;;3.10;54.70;;;;;;5033007;28;20518;-70
2021/01/09 12:14:00;;;;;;;2.05;1.77;;;3.20;55.20;;;;;;5032944;28;20201;-68
2021/01/09 12:16:30;;;;;;;2.10;1.30;;;3.00;55.50;;;;;;5033051;28;20536;-70
2021/01/09 12:18:56;;;;;;;1.15;1.10;;;2.80;55.40;;;;;;5033239;28;20403;-69
2021/01/09 12:21:23;;;;;;;1.35;1.25;;;2.60;55.80;;;;;;5032886;28;20193;-70
2021/01/09 12:23:49;;;;;;;5.25;2.10;;;2.20;56.50;;;;;;5033013;28;20164;-70
2021/01/09 12:26:21;;;;;;;2.20;1.30;;;2.00;57.00;;;;;;5032934;28;20580;-70
2021/01/09 12:28:47;;;;;;;2.00;1.90;;;1.80;57.50;;;;;;5033457;28;20180;-70
2021/01/09 12:31:13;;;;;;;1.90;1.70;;;1.70;58.40;;;;;;5036468;28;20541;-69
2021/01/09 12:33:40;;;;;;;1.92;1.75;;;1.70;58.40;;;;;;5035358;28;20446;-69
2021/01/09 12:36:08;;;;;;;2.30;2.10;;;1.60;58.30;;;;;;5036353;28;20259;-68
2021/01/09 12:38:34;;;;;;;2.30;1.70;;;1.50;59.20;;;;;;5036409;28;20164;-67
2021/01/09 12:40:59;;;;;;;1.37;1.27;;;1.30;59.50;;;;;;5036266;28;20669;-69
2021/01/09 12:43:25;;;;;;;2.07;1.87;;;1.10;59.20;;;;;;5036222;28;20402;-70
2021/01/09 12:45:53;;;;;;;3.27;1.93;;;1.10;59.80;;;;;;5036325;28;20707;-69
2021/01/09 12:48:18;;;;;;;1.95;1.85;;;1.00;59.90;;;;;;5036264;28;20178;-69
2021/01/09 12:50:44;;;;;;;2.07;1.97;;;0.90;62.00;;;;;;5036288;28;20191;-68